createdAt,value
2019-02-21T00:01:09.670Z,65.30
2019-02-21T00:03:59.504Z,64.70
2019-02-21T00:06:53.272Z,66.10
2019-02-21T00:09:32.672Z,62.70
2019-02-21T00:12:18.809Z,63.80
2019-02-21T00:14:59.472Z,64.00
2019-02-21T00:17:40.027Z,67.50
2019-02-21T00:20:23.936Z,63.60
2019-02-21T00:23:08.589Z,66.10
2019-02-21T00:25:52.067Z,65.10
2019-02-21T00:28:37.018Z,65.50
2019-02-21T00:31:37.193Z,64.10
2019-02-21T00:34:20.857Z,66.00
2019-02-21T00:37:04.688Z,64.00
2019-02-21T00:39:49.759Z,66.60
2019-02-21T00:42:36.984Z,64.30
2019-02-21T00:45:19.393Z,64.50
2019-02-21T00:48:10.110Z,66.40
2019-02-21T00:50:51.850Z,63.50
2019-02-21T00:53:35.172Z,62.70
2019-02-21T00:56:20.363Z,61.20
2019-02-21T00:59:02.926Z,61.70
2019-02-21T01:01:46.328Z,62.10
2019-02-21T01:04:27.129Z,63.80
2019-02-21T01:07:09.950Z,65.40
2019-02-21T01:09:55.867Z,63.30
2019-02-21T01:12:43.370Z,66.80
2019-02-21T01:15:27.521Z,60.90
2019-02-21T01:18:08.089Z,64.50
2019-02-21T01:20:49.738Z,63.20
2019-02-21T01:23:33.557Z,61.10
2019-02-21T01:26:14.923Z,60.00
2019-02-21T01:28:56.955Z,59.80
2019-02-21T01:31:46.813Z,60.20
2019-02-21T01:34:37.184Z,62.50
2019-02-21T01:37:17.975Z,66.20
2019-02-21T01:39:59.921Z,60.30
2019-02-21T01:42:43.543Z,60.70
2019-02-21T01:45:24.180Z,59.10
2019-02-21T01:48:08.031Z,58.10
2019-02-21T01:50:52.457Z,59.50
2019-02-21T01:53:35.332Z,58.10
2019-02-21T01:56:15.776Z,59.50
2019-02-21T01:59:05.847Z,58.90
2019-02-21T02:01:49.918Z,58.10
2019-02-21T02:04:30.309Z,59.60
2019-02-21T02:07:10.667Z,58.80
2019-02-21T02:09:50.813Z,60.70
2019-02-21T02:12:30.492Z,58.80
2019-02-21T02:15:10.032Z,58.10
2019-02-21T02:17:50.674Z,57.40
2019-02-21T02:20:35.778Z,57.70
2019-02-21T02:23:17.289Z,59.50
2019-02-21T02:26:01.681Z,59.40
2019-02-21T02:28:44.182Z,57.40
2019-02-21T02:31:29.363Z,61.40
2019-02-21T02:34:12.984Z,60.70
2019-02-21T02:36:53.712Z,59.90
2019-02-21T02:39:40.529Z,60.80
2019-02-21T02:42:22.315Z,63.00
2019-02-21T02:45:06.290Z,66.20
2019-02-21T02:47:47.419Z,59.70
2019-02-21T02:50:28.806Z,60.80
2019-02-21T02:53:17.484Z,60.90
2019-02-21T02:56:02.212Z,59.00
2019-02-21T02:58:49.724Z,58.80
2019-02-21T03:01:35.008Z,57.70
2019-02-21T03:04:15.027Z,60.70
2019-02-21T03:07:01.947Z,60.70
2019-02-21T03:09:47.794Z,62.00
2019-02-21T03:12:30.620Z,60.90
2019-02-21T03:15:12.621Z,59.80
2019-02-21T03:17:53.177Z,58.70
2019-02-21T03:20:38.420Z,58.10
2019-02-21T03:23:20.327Z,57.80
2019-02-21T03:26:03.395Z,56.20
2019-02-21T03:28:47.577Z,55.70
2019-02-21T03:31:52.673Z,56.00
2019-02-21T03:34:18.530Z,56.00
2019-02-21T03:37:01.672Z,57.40
2019-02-21T03:39:45.420Z,57.50
2019-02-21T03:42:27.472Z,59.00
2019-02-21T03:45:13.398Z,57.00
2019-02-21T03:48:02.049Z,56.20
2019-02-21T03:50:49.939Z,55.70
2019-02-21T03:53:34.883Z,55.80
2019-02-21T03:56:17.560Z,55.00
2019-02-21T03:58:58.983Z,54.40
2019-02-21T04:01:44.331Z,53.30
2019-02-21T04:04:24.998Z,57.30
2019-02-21T04:07:07.762Z,57.10
2019-02-21T04:10:04.418Z,55.60
2019-02-21T04:12:53.464Z,58.90
2019-02-21T04:15:37.757Z,60.10
2019-02-21T04:18:18.385Z,56.80
2019-02-21T04:21:00.223Z,54.20
2019-02-21T04:23:50.952Z,55.80
2019-02-21T04:26:34.902Z,57.70
2019-02-21T04:29:22.460Z,53.90
2019-02-21T04:32:16.917Z,53.30
2019-02-21T04:35:00.705Z,55.70
2019-02-21T04:37:46.489Z,54.20
2019-02-21T04:43:35.377Z,54.80
2019-02-21T04:46:17.371Z,54.50
2019-02-21T04:49:01.781Z,54.60
2019-02-21T04:51:43.833Z,52.80
2019-02-21T04:54:32.849Z,56.30
2019-02-21T04:57:19.168Z,54.00
2019-02-21T05:00:01.759Z,52.60
2019-02-21T05:02:45.304Z,51.70
2019-02-21T05:05:29.640Z,52.50
2019-02-21T05:08:11.467Z,51.70
2019-02-21T05:10:50.609Z,51.10
2019-02-21T05:13:35.350Z,50.80
2019-02-21T05:16:24.792Z,54.60
2019-02-21T05:19:08.827Z,51.10
2019-02-21T05:21:54.936Z,51.20
2019-02-21T05:24:37.699Z,51.50
2019-02-21T05:27:25.505Z,51.20
2019-02-21T05:30:12.880Z,50.90
2019-02-21T05:33:16.972Z,51.00
2019-02-21T05:36:28.823Z,50.00
2019-02-21T05:39:33.970Z,50.20
2019-02-21T05:42:35.928Z,50.20
2019-02-21T05:45:43.377Z,51.00
2019-02-21T05:48:32.217Z,50.80
2019-02-21T05:51:34.949Z,50.10
2019-02-21T05:54:24.954Z,52.10
2019-02-21T05:57:25.062Z,50.40
2019-02-21T06:00:26.843Z,50.00
2019-02-21T06:03:35.903Z,49.80
2019-02-21T06:06:35.342Z,51.10
2019-02-21T06:09:29.093Z,52.70
2019-02-21T06:12:41.710Z,50.80
2019-02-21T06:15:38.998Z,50.10
2019-02-21T06:18:39.569Z,50.20
2019-02-21T06:21:44.043Z,50.20
2019-02-21T06:24:52.460Z,50.80
2019-02-21T06:27:50.786Z,51.50
2019-02-21T06:30:39.785Z,52.20
2019-02-21T06:34:13.429Z,51.70
2019-02-21T06:36:53.975Z,50.40
2019-02-21T06:39:55.155Z,50.30
2019-02-21T06:42:34.490Z,50.20
2019-02-21T06:45:18.831Z,50.70
2019-02-21T06:48:02.166Z,50.40
2019-02-21T06:50:47.410Z,49.80
2019-02-21T06:53:44.784Z,49.80
2019-02-21T06:56:25.131Z,50.40
2019-02-21T06:59:06.742Z,50.40
2019-02-21T07:02:17.718Z,49.20
2019-02-21T07:05:09.335Z,48.70
2019-02-21T07:07:50.904Z,49.90
2019-02-21T07:10:48.763Z,49.50
2019-02-21T07:13:29.835Z,50.00
2019-02-21T07:16:13.165Z,48.00
2019-02-21T07:19:29.401Z,47.30
2019-02-21T07:22:17.663Z,48.50
2019-02-21T07:25:01.533Z,48.50
2019-02-21T07:27:47.021Z,48.10
2019-02-21T07:30:29.001Z,48.70
2019-02-21T07:33:10.239Z,48.70
2019-02-21T07:36:11.409Z,48.70
2019-02-21T07:39:13.726Z,49.30
2019-02-21T07:41:49.768Z,48.40
2019-02-21T07:44:34.722Z,47.50
2019-02-21T07:47:17.882Z,48.30
2019-02-21T07:50:00.394Z,48.50
2019-02-21T07:52:43.906Z,51.10
2019-02-21T07:55:35.390Z,50.10
2019-02-21T07:58:18.073Z,49.10
2019-02-21T08:01:07.972Z,48.60
2019-02-21T08:03:50.293Z,47.40
2019-02-21T08:06:32.456Z,47.20
2019-02-21T08:09:15.835Z,48.70
2019-02-21T08:11:58.404Z,47.70
2019-02-21T08:14:43.318Z,49.20
2019-02-21T08:17:27.972Z,49.20
2019-02-21T08:20:11.418Z,49.40
2019-02-21T08:22:54.064Z,48.50
2019-02-21T08:25:37.541Z,48.60
2019-02-21T08:28:37.708Z,48.60
2019-02-21T08:31:24.270Z,49.20
2019-02-21T08:34:09.912Z,48.50
2019-02-21T08:36:50.217Z,48.70
2019-02-21T08:39:30.967Z,48.90
2019-02-21T08:42:21.002Z,49.10
2019-02-21T08:45:02.566Z,47.10
2019-02-21T08:47:49.694Z,47.60
2019-02-21T08:50:33.584Z,46.70
2019-02-21T08:53:18.902Z,46.00
2019-02-21T08:56:07.740Z,47.00
2019-02-21T08:58:51.577Z,47.20
2019-02-21T09:01:34.592Z,48.00
2019-02-21T09:04:26.354Z,47.50
2019-02-21T09:06:59.598Z,47.50
2019-02-21T09:09:41.202Z,48.00
2019-02-21T09:12:26.480Z,48.10
2019-02-21T09:15:10.994Z,48.90
2019-02-21T09:17:54.663Z,47.80
2019-02-21T09:20:37.300Z,48.20
2019-02-21T09:26:36.268Z,46.80
2019-02-21T09:29:34.809Z,46.70
2019-02-21T09:32:17.748Z,47.20
2019-02-21T09:34:58.725Z,47.50
2019-02-21T09:37:44.444Z,49.30
2019-02-21T09:43:21.276Z,48.70
2019-02-21T09:46:01.708Z,50.80
2019-02-21T09:48:45.607Z,50.20
2019-02-21T09:51:30.121Z,50.20
2019-02-21T09:54:11.651Z,51.00
2019-02-21T09:56:54.076Z,51.80
2019-02-21T09:59:35.992Z,50.00
2019-02-21T10:02:23.129Z,50.50
2019-02-21T10:05:09.596Z,50.60
2019-02-21T10:07:50.542Z,51.40
2019-02-21T10:10:34.280Z,50.50
2019-02-21T10:13:22.394Z,50.00
2019-02-21T10:16:04.807Z,49.50
2019-02-21T10:18:45.960Z,49.80
2019-02-21T10:21:34.125Z,50.90
2019-02-21T10:24:15.956Z,50.80
2019-02-21T10:27:04.951Z,50.40
2019-02-21T10:29:55.132Z,50.70
2019-02-21T10:32:38.442Z,52.00
2019-02-21T10:35:21.122Z,53.20
2019-02-21T10:38:06.795Z,53.30
2019-02-21T10:40:51.834Z,52.20
2019-02-21T10:43:42.043Z,53.10
2019-02-21T10:46:31.043Z,53.00
2019-02-21T10:49:25.547Z,53.30
2019-02-21T10:52:07.217Z,54.40
2019-02-21T10:54:58.979Z,54.80
2019-02-21T10:57:45.175Z,54.80
2019-02-21T11:00:30.087Z,55.10
2019-02-21T11:03:11.207Z,54.90
2019-02-21T11:05:50.328Z,55.30
2019-02-21T11:11:36.928Z,54.20
2019-02-21T11:14:34.582Z,54.50
2019-02-21T11:17:20.983Z,54.70
2019-02-21T11:20:01.480Z,54.20
2019-02-21T11:22:46.685Z,54.40
2019-02-21T11:25:39.640Z,55.00
2019-02-21T11:28:26.179Z,55.90
2019-02-21T11:31:06.445Z,54.90
2019-02-21T11:33:58.422Z,54.90
2019-02-21T11:36:45.419Z,55.70
2019-02-21T11:39:28.632Z,54.60
2019-02-21T11:42:11.645Z,54.90
2019-02-21T11:44:53.551Z,55.00
2019-02-21T11:47:38.560Z,55.00
2019-02-21T11:50:29.047Z,55.20
2019-02-21T11:53:12.976Z,55.00
2019-02-21T11:55:57.472Z,55.40
2019-02-21T11:58:45.423Z,57.10
2019-02-21T12:01:28.594Z,57.90
2019-02-21T12:04:16.564Z,58.90
2019-02-21T12:07:05.407Z,57.40
2019-02-21T12:10:03.411Z,56.80
2019-02-21T12:12:55.144Z,56.40
2019-02-21T12:15:48.514Z,55.60
2019-02-21T12:18:30.568Z,57.50
2019-02-21T12:21:26.516Z,57.50
2019-02-21T12:24:12.135Z,56.80
2019-02-21T12:27:02.234Z,57.70
2019-02-21T12:29:54.286Z,58.50
2019-02-21T12:32:40.259Z,59.80
2019-02-21T12:35:29.608Z,59.60
2019-02-21T12:38:18.730Z,59.40
2019-02-21T12:41:05.772Z,59.10
2019-02-21T12:43:49.967Z,59.20
2019-02-21T12:46:48.913Z,58.50
2019-02-21T12:49:45.390Z,58.40
2019-02-21T12:52:33.536Z,58.00
2019-02-21T12:55:27.010Z,58.10
2019-02-21T12:58:06.778Z,58.40
2019-02-21T13:01:08.412Z,58.80
2019-02-21T13:04:01.278Z,58.50
2019-02-21T13:06:55.084Z,57.10
2019-02-21T13:09:59.176Z,56.70
2019-02-21T13:12:53.626Z,56.70
2019-02-21T13:15:39.443Z,56.70
2019-02-21T13:18:37.316Z,57.20
2019-02-21T13:21:24.212Z,57.10
2019-02-21T13:24:08.980Z,57.10
2019-02-21T13:27:00.639Z,56.50
2019-02-21T13:29:59.437Z,56.70
2019-02-21T13:32:53.567Z,56.60
2019-02-21T13:36:13.606Z,56.70
2019-02-21T13:39:12.230Z,57.20
2019-02-21T13:42:02.203Z,57.30
2019-02-21T13:44:49.665Z,57.80
2019-02-21T13:47:58.833Z,56.70
2019-02-21T13:50:48.911Z,56.40
2019-02-21T13:54:00.209Z,56.50
2019-02-21T13:56:43.788Z,56.60
2019-02-21T13:59:35.055Z,56.60
2019-02-21T14:02:23.170Z,56.70
2019-02-21T14:05:23.751Z,57.00
2019-02-21T14:08:28.131Z,56.50
2019-02-21T14:11:12.689Z,56.80
2019-02-21T14:14:00.658Z,57.20
2019-02-21T14:16:46.876Z,57.20
2019-02-21T14:19:49.872Z,56.90
2019-02-21T14:22:40.533Z,57.10
2019-02-21T14:25:40.725Z,57.50
2019-02-21T14:28:27.685Z,57.70
2019-02-21T14:31:22.245Z,57.90
2019-02-21T14:34:15.106Z,57.90
2019-02-21T14:37:08.695Z,57.90
2019-02-21T14:39:58.117Z,58.10
2019-02-21T14:42:55.926Z,58.10
2019-02-21T14:45:48.236Z,58.40
2019-02-21T14:48:41.336Z,58.10
2019-02-21T14:51:37.732Z,58.00
2019-02-21T14:54:41.107Z,58.10
2019-02-21T14:57:40.564Z,58.00
2019-02-21T15:00:26.938Z,58.10
2019-02-21T15:03:21.277Z,58.50
2019-02-21T15:06:08.135Z,58.70
2019-02-21T15:08:57.546Z,58.60
2019-02-21T15:11:52.198Z,58.50
2019-02-21T15:14:57.494Z,58.50
2019-02-21T15:17:49.995Z,59.00
2019-02-21T15:20:37.334Z,58.80
2019-02-21T15:23:54.044Z,58.80
2019-02-21T15:26:50.884Z,59.10
2019-02-21T15:29:43.392Z,58.80
2019-02-21T15:32:30.410Z,59.20
2019-02-21T15:35:45.779Z,59.30
2019-02-21T15:39:10.282Z,59.20
2019-02-21T15:42:40.636Z,59.10
2019-02-21T15:45:52.617Z,59.10
2019-02-21T15:48:47.986Z,59.20
2019-02-21T15:51:49.207Z,59.10
2019-02-21T15:54:50.766Z,59.10
2019-02-21T15:58:06.371Z,59.30
2019-02-21T16:01:46.976Z,59.40
2019-02-21T16:05:07.282Z,59.40
2019-02-21T16:08:08.246Z,59.40
2019-02-21T16:11:11.048Z,59.80
2019-02-21T16:14:15.730Z,59.90
2019-02-21T16:17:30.971Z,59.60
2019-02-21T16:20:40.140Z,60.00
2019-02-21T16:23:43.260Z,60.10
2019-02-21T16:26:59.338Z,60.10
2019-02-21T16:29:51.511Z,60.30
2019-02-21T16:32:59.676Z,60.10
2019-02-21T16:36:22.471Z,60.30
2019-02-21T16:39:23.567Z,60.40
2019-02-21T16:42:22.875Z,60.60
2019-02-21T16:45:21.862Z,60.30
2019-02-21T16:48:11.121Z,60.70
2019-02-21T16:51:16.328Z,61.00
2019-02-21T16:54:03.156Z,60.80
2019-02-21T16:56:52.917Z,60.80
2019-02-21T16:59:45.420Z,60.90
2019-02-21T17:02:43.323Z,61.00
2019-02-21T17:05:27.681Z,60.80
2019-02-21T17:08:14.668Z,61.30
2019-02-21T17:11:01.720Z,60.80
2019-02-21T17:13:47.187Z,60.50
2019-02-21T17:16:29.199Z,60.90
2019-02-21T17:19:18.444Z,60.40
2019-02-21T17:22:12.417Z,60.10
2019-02-21T17:24:59.307Z,60.70
2019-02-21T17:27:38.642Z,60.70
2019-02-21T17:30:31.830Z,60.70
2019-02-21T17:33:18.237Z,60.60
2019-02-21T17:35:59.100Z,60.30
2019-02-21T17:38:40.163Z,60.50
2019-02-21T17:41:24.751Z,61.60
2019-02-21T17:44:10.796Z,61.10
2019-02-21T17:46:51.430Z,61.10
2019-02-21T17:49:45.194Z,61.10
2019-02-21T17:52:34.298Z,61.50
2019-02-21T17:55:16.367Z,61.30
2019-02-21T17:58:03.577Z,61.20
2019-02-21T18:00:51.260Z,61.20
2019-02-21T18:03:34.874Z,60.90
2019-02-21T18:06:19.766Z,60.90
2019-02-21T18:09:00.347Z,60.90
2019-02-21T18:11:42.539Z,60.60
2019-02-21T18:14:25.648Z,61.10
2019-02-21T18:17:06.476Z,60.50
2019-02-21T18:19:49.069Z,60.90
2019-02-21T18:22:41.805Z,60.90
2019-02-21T18:25:26.949Z,61.00
2019-02-21T18:28:07.309Z,61.20
2019-02-21T18:30:50.518Z,61.40
2019-02-21T18:33:36.960Z,61.80
2019-02-21T18:36:21.517Z,61.80
2019-02-21T18:39:17.158Z,61.50
2019-02-21T18:42:01.951Z,62.10
2019-02-21T18:44:52.454Z,62.20
2019-02-21T18:47:35.492Z,62.00
2019-02-21T18:50:19.318Z,62.20
2019-02-21T18:53:02.762Z,62.30
2019-02-21T18:55:46.494Z,62.50
2019-02-21T18:58:27.754Z,62.70
2019-02-21T19:01:10.146Z,62.90
2019-02-21T19:03:51.424Z,62.40
2019-02-21T19:06:33.983Z,62.70
2019-02-21T19:09:19.493Z,62.80
2019-02-21T19:12:04.040Z,62.80
2019-02-21T19:14:43.670Z,63.10
2019-02-21T19:17:29.239Z,63.40
2019-02-21T19:20:30.770Z,63.60
2019-02-21T19:23:13.161Z,63.50
2019-02-21T19:25:56.106Z,63.40
2019-02-21T19:28:42.249Z,63.10
2019-02-21T19:31:26.116Z,63.10
2019-02-21T19:34:05.740Z,63.70
2019-02-21T19:36:53.183Z,63.70
2019-02-21T19:39:37.463Z,63.40
2019-02-21T19:42:19.754Z,63.60
2019-02-21T19:45:01.064Z,64.00
2019-02-21T19:47:42.436Z,64.00
2019-02-21T19:50:23.055Z,63.80
2019-02-21T19:53:05.840Z,63.90
2019-02-21T19:55:51.827Z,64.00
2019-02-21T19:58:40.853Z,63.90
2019-02-21T20:01:26.296Z,64.00
2019-02-21T20:04:09.923Z,64.00
2019-02-21T20:06:50.675Z,64.00
2019-02-21T20:09:48.377Z,63.90
2019-02-21T20:12:34.033Z,64.20
2019-02-21T20:15:12.514Z,64.20
2019-02-21T20:18:11.524Z,63.80
2019-02-21T20:20:51.243Z,64.30
2019-02-21T20:23:31.776Z,64.50
2019-02-21T20:26:18.450Z,64.40
2019-02-21T20:29:02.923Z,64.30
2019-02-21T20:31:47.997Z,64.40
2019-02-21T20:34:29.338Z,64.60
2019-02-21T20:37:09.996Z,64.40
2019-02-21T20:39:55.031Z,64.60
2019-02-21T20:42:36.093Z,64.80
2019-02-21T20:45:15.647Z,64.80
2019-02-21T20:47:58.715Z,64.90
2019-02-21T20:50:40.568Z,64.80
2019-02-21T20:53:25.839Z,64.60
2019-02-21T20:56:09.805Z,64.60
2019-02-21T20:58:51.222Z,64.60
2019-02-21T21:01:31.186Z,65.00
2019-02-21T21:04:12.234Z,65.10
2019-02-21T21:06:55.305Z,65.10
2019-02-21T21:09:39.118Z,65.10
2019-02-21T21:12:19.991Z,65.30
2019-02-21T21:15:00.646Z,65.60
2019-02-21T21:17:42.119Z,65.60
2019-02-21T21:20:22.445Z,65.40
2019-02-21T21:23:06.322Z,65.50
2019-02-21T21:25:50.321Z,65.50
2019-02-21T21:28:30.966Z,65.50
2019-02-21T21:31:09.907Z,65.60
2019-02-21T21:33:51.374Z,65.40
2019-02-21T21:36:33.066Z,65.50
2019-02-21T21:39:17.062Z,65.60
2019-02-21T21:41:58.220Z,65.30
2019-02-21T21:44:40.581Z,65.50
2019-02-21T21:47:23.986Z,65.70
2019-02-21T21:50:02.988Z,65.60
2019-02-21T21:52:43.030Z,65.50
2019-02-21T21:55:23.450Z,65.40
2019-02-21T21:58:06.337Z,65.50
2019-02-21T22:00:47.910Z,65.50
2019-02-21T22:03:29.664Z,65.30
2019-02-21T22:06:11.201Z,65.50
2019-02-21T22:09:04.515Z,65.60
2019-02-21T22:11:40.760Z,65.60
2019-02-21T22:14:20.711Z,65.60
2019-02-21T22:17:02.975Z,65.80
2019-02-21T22:19:46.951Z,65.70
2019-02-21T22:22:28.982Z,66.00
2019-02-21T22:25:11.054Z,66.00
2019-02-21T22:27:57.074Z,65.90
2019-02-21T22:30:37.066Z,66.00
2019-02-21T22:33:18.511Z,65.80
2019-02-21T22:36:00.866Z,66.00
2019-02-21T22:38:45.010Z,66.10
2019-02-21T22:41:29.105Z,66.30
2019-02-21T22:44:07.779Z,66.20
2019-02-21T22:46:52.207Z,66.10
2019-02-21T22:49:31.668Z,65.70
2019-02-21T22:52:16.977Z,65.70
2019-02-21T22:55:09.374Z,65.60
2019-02-21T22:57:46.518Z,65.30
2019-02-21T23:01:13.766Z,65.50
2019-02-21T23:04:21.796Z,65.50
2019-02-21T23:07:16.747Z,65.80
2019-02-21T23:10:01.844Z,65.70
2019-02-21T23:12:44.005Z,65.30
2019-02-21T23:15:28.689Z,66.00
2019-02-21T23:18:10.808Z,65.10
2019-02-21T23:20:55.664Z,65.30
2019-02-21T23:23:36.847Z,66.40
2019-02-21T23:26:35.933Z,67.10
2019-02-21T23:29:18.747Z,65.90
2019-02-21T23:31:58.769Z,65.30
2019-02-21T23:34:43.376Z,65.10
2019-02-21T23:37:25.894Z,65.20
2019-02-21T23:40:06.797Z,65.30
2019-02-21T23:42:48.503Z,65.70
2019-02-21T23:45:27.913Z,65.50
2019-02-21T23:48:14.433Z,65.30
2019-02-21T23:50:55.402Z,66.00
2019-02-21T23:53:39.376Z,65.30
2019-02-21T23:56:30.048Z,65.10
2019-02-21T23:59:12.921Z,66.20
